createdAt,value
2018-06-14T00:01:32.766Z,101098.57
2018-06-14T00:04:02.443Z,101093.37
2018-06-14T00:06:31.564Z,101092.39
2018-06-14T00:09:00.557Z,101095.69
2018-06-14T00:11:29.756Z,101098.00
2018-06-14T00:13:59.262Z,101099.44
2018-06-14T00:16:28.417Z,101100.58
2018-06-14T00:18:57.528Z,101091.81
2018-06-14T00:21:26.607Z,101085.09
2018-06-14T00:23:55.567Z,101090.73
2018-06-14T00:26:27.972Z,101085.39
2018-06-14T00:28:57.387Z,101085.95
2018-06-14T00:31:27.496Z,101079.01
2018-06-14T00:33:56.707Z,101081.53
2018-06-14T00:36:28.676Z,101080.20
2018-06-14T00:38:57.966Z,101086.27
2018-06-14T00:41:27.046Z,101069.55
2018-06-14T00:43:56.152Z,101094.84
2018-06-14T00:46:28.603Z,101096.88
2018-06-14T00:48:57.707Z,101090.25
2018-06-14T00:51:26.798Z,101093.60
2018-06-14T00:53:55.899Z,101090.13
2018-06-14T00:56:31.694Z,101086.23
2018-06-14T00:59:00.768Z,101090.48
2018-06-14T01:01:29.894Z,101091.69
2018-06-14T01:03:59.151Z,101091.06
2018-06-14T01:06:29.267Z,101092.20
2018-06-14T01:08:58.406Z,101091.69
2018-06-14T01:11:27.862Z,101081.36
2018-06-14T01:13:57.179Z,101086.73
2018-06-14T01:16:29.346Z,101089.38
2018-06-14T01:18:58.446Z,101087.91
2018-06-14T01:21:27.522Z,101082.11
2018-06-14T01:23:56.622Z,101077.66
2018-06-14T01:26:29.187Z,101079.80
2018-06-14T01:28:58.294Z,101076.41
2018-06-14T01:31:27.378Z,101079.18
2018-06-14T01:33:56.475Z,101078.59
2018-06-14T01:36:28.530Z,101074.55
2018-06-14T01:38:57.638Z,101071.20
2018-06-14T01:41:26.573Z,101076.45
2018-06-14T01:43:55.632Z,101065.19
2018-06-14T01:46:29.946Z,101073.64
2018-06-14T01:48:59.052Z,101076.30
2018-06-14T01:51:28.123Z,101074.03
2018-06-14T01:53:57.282Z,101077.27
2018-06-14T01:56:28.675Z,101067.30
2018-06-14T01:58:57.982Z,101074.23
2018-06-14T02:01:27.078Z,101070.10
2018-06-14T02:03:56.179Z,101070.64
2018-06-14T02:06:28.723Z,101065.38
2018-06-14T02:08:58.169Z,101069.32
2018-06-14T02:11:27.151Z,101064.05
2018-06-14T02:13:56.362Z,101065.11
2018-06-14T02:16:29.370Z,101066.35
2018-06-14T02:18:58.351Z,101068.66
2018-06-14T02:21:27.726Z,101068.97
2018-06-14T02:23:56.816Z,101078.04
2018-06-14T02:26:29.706Z,101075.92
2018-06-14T02:28:58.796Z,101079.55
2018-06-14T02:31:27.739Z,101076.16
2018-06-14T02:33:56.991Z,101081.34
2018-06-14T02:36:29.395Z,101075.98
2018-06-14T02:38:58.352Z,101080.54
2018-06-14T02:41:27.352Z,101075.50
2018-06-14T02:43:56.480Z,101083.66
2018-06-14T02:46:29.333Z,101079.06
2018-06-14T02:48:59.234Z,101077.16
2018-06-14T02:51:28.188Z,101077.27
2018-06-14T02:53:57.426Z,101072.39
2018-06-14T02:56:27.968Z,101072.89
2018-06-14T02:58:56.927Z,101069.62
2018-06-14T03:01:26.185Z,101074.45
2018-06-14T03:03:55.259Z,101076.59
2018-06-14T03:06:29.748Z,101070.83
2018-06-14T03:08:59.030Z,101065.68
2018-06-14T03:11:28.575Z,101066.68
2018-06-14T03:13:57.515Z,101071.83
2018-06-14T03:16:30.424Z,101065.73
2018-06-14T03:18:59.631Z,101068.41
2018-06-14T03:21:28.810Z,101063.97
2018-06-14T03:23:57.802Z,101057.15
2018-06-14T03:26:28.878Z,101055.94
2018-06-14T03:28:58.344Z,101051.20
2018-06-14T03:31:27.682Z,101052.52
2018-06-14T03:33:56.837Z,101046.98
2018-06-14T03:36:30.538Z,101042.28
2018-06-14T03:38:59.684Z,101040.59
2018-06-14T03:41:29.044Z,101034.68
2018-06-14T03:43:58.265Z,101036.13
2018-06-14T03:46:30.030Z,101037.21
2018-06-14T03:48:59.248Z,101041.97
2018-06-14T03:51:28.396Z,101032.97
2018-06-14T03:53:57.620Z,101033.42
2018-06-14T03:56:28.178Z,101037.52
2018-06-14T03:58:57.467Z,101037.41
2018-06-14T04:01:26.971Z,101043.17
2018-06-14T04:03:56.607Z,101036.70
2018-06-14T04:06:29.363Z,101044.92
2018-06-14T04:08:58.562Z,101044.18
2018-06-14T04:11:27.991Z,101032.77
2018-06-14T04:13:57.442Z,101043.48
2018-06-14T04:16:28.402Z,101048.08
2018-06-14T04:18:57.504Z,101044.88
2018-06-14T04:21:26.444Z,101041.02
2018-06-14T04:23:55.513Z,101039.77
2018-06-14T04:26:29.839Z,101042.81
2018-06-14T04:28:59.194Z,101043.34
2018-06-14T04:31:29.491Z,101041.51
2018-06-14T04:33:58.602Z,101041.92
2018-06-14T04:36:29.243Z,101042.19
2018-06-14T04:38:58.329Z,101043.64
2018-06-14T04:41:27.663Z,101046.63
2018-06-14T04:43:56.724Z,101040.41
2018-06-14T04:46:28.811Z,101042.39
2018-06-14T04:48:57.891Z,101043.70
2018-06-14T04:51:27.008Z,101045.91
2018-06-14T04:53:57.100Z,101044.47
2018-06-14T04:56:30.175Z,101041.34
2018-06-14T04:58:59.612Z,101042.79
2018-06-14T05:01:28.716Z,101042.98
2018-06-14T05:03:57.858Z,101035.19
2018-06-14T05:06:27.954Z,101034.39
2018-06-14T05:08:57.232Z,101035.58
2018-06-14T05:11:26.990Z,101040.67
2018-06-14T05:13:56.277Z,101039.95
2018-06-14T05:16:29.527Z,101026.89
2018-06-14T05:18:58.658Z,101030.75
2018-06-14T05:21:28.703Z,101024.37
2018-06-14T05:23:58.175Z,101024.23
2018-06-14T05:26:29.083Z,101028.30
2018-06-14T05:28:58.419Z,101030.56
2018-06-14T05:31:27.576Z,101028.59
2018-06-14T05:33:56.847Z,101030.71
2018-06-14T05:36:29.595Z,101030.25
2018-06-14T05:38:58.868Z,101029.11
2018-06-14T05:41:28.158Z,101021.95
2018-06-14T05:43:57.122Z,101025.20
2018-06-14T05:46:29.702Z,101025.64
2018-06-14T05:48:59.022Z,101027.72
2018-06-14T05:51:28.624Z,101008.28
2018-06-14T05:53:57.590Z,101021.22
2018-06-14T05:56:28.329Z,101017.64
2018-06-14T05:58:57.456Z,101015.83
2018-06-14T06:01:26.459Z,101011.84
2018-06-14T06:03:55.671Z,101015.09
2018-06-14T06:06:28.628Z,101017.73
2018-06-14T06:08:57.690Z,101012.72
2018-06-14T06:11:27.211Z,101006.87
2018-06-14T06:13:56.163Z,101002.34
2018-06-14T06:16:28.529Z,101007.56
2018-06-14T06:18:57.695Z,101005.64
2018-06-14T06:21:26.758Z,101000.20
2018-06-14T06:23:55.890Z,100994.00
2018-06-14T06:26:28.896Z,100997.73
2018-06-14T06:28:58.539Z,100991.42
2018-06-14T06:31:27.855Z,100994.55
2018-06-14T06:33:56.958Z,100996.27
2018-06-14T06:36:29.630Z,100993.44
2018-06-14T06:38:58.574Z,100989.84
2018-06-14T06:41:28.079Z,100984.59
2018-06-14T06:43:57.153Z,100991.73
2018-06-14T06:46:27.961Z,100989.00
2018-06-14T06:48:57.591Z,100991.94
2018-06-14T06:51:26.512Z,100985.63
2018-06-14T06:53:55.938Z,100981.41
2018-06-14T06:56:28.366Z,100980.75
2018-06-14T06:58:58.093Z,100983.25
2018-06-14T07:01:27.288Z,100973.30
2018-06-14T07:03:56.374Z,100974.11
2018-06-14T07:06:29.244Z,100973.63
2018-06-14T07:08:58.446Z,100969.12
2018-06-14T07:11:27.608Z,100965.38
2018-06-14T07:13:57.062Z,100958.30
2018-06-14T07:16:30.840Z,100962.05
2018-06-14T07:19:00.748Z,100966.97
2018-06-14T07:21:29.699Z,100971.68
2018-06-14T07:23:58.985Z,100962.26
2018-06-14T07:26:28.123Z,100960.22
2018-06-14T07:28:57.239Z,100964.91
2018-06-14T07:31:26.790Z,100957.66
2018-06-14T07:33:56.456Z,100956.31
2018-06-14T07:36:28.506Z,100953.48
2018-06-14T07:38:57.428Z,100946.75
2018-06-14T07:41:26.504Z,100948.08
2018-06-14T07:43:55.876Z,100947.69
2018-06-14T07:46:28.476Z,100945.33
2018-06-14T07:48:57.802Z,100944.70
2018-06-14T07:51:26.785Z,100941.58
2018-06-14T07:53:56.039Z,100939.30
2018-06-14T07:56:28.561Z,100944.10
2018-06-14T07:58:57.860Z,100939.81
2018-06-14T08:01:26.959Z,100933.91
2018-06-14T08:03:56.063Z,100930.38
2018-06-14T08:06:28.869Z,100935.84
2018-06-14T08:08:57.756Z,100927.73
2018-06-14T08:11:27.022Z,100934.65
2018-06-14T08:13:56.139Z,100930.95
2018-06-14T08:16:28.807Z,100931.66
2018-06-14T08:18:57.900Z,100928.09
2018-06-14T08:21:26.980Z,100932.37
2018-06-14T08:23:56.432Z,100929.89
2018-06-14T08:26:29.563Z,100932.94
2018-06-14T08:28:58.686Z,100933.70
2018-06-14T08:31:27.961Z,100928.87
2018-06-14T08:33:57.264Z,100917.86
2018-06-14T08:36:29.248Z,100920.09
2018-06-14T08:38:58.346Z,100918.52
2018-06-14T08:41:27.412Z,100915.44
2018-06-14T08:43:56.507Z,100906.34
2018-06-14T08:46:29.408Z,100911.95
2018-06-14T08:48:58.484Z,100907.61
2018-06-14T08:51:27.474Z,100896.38
2018-06-14T08:53:56.680Z,100900.02
2018-06-14T08:56:27.530Z,100892.13
2018-06-14T08:58:56.596Z,100900.27
2018-06-14T09:01:25.711Z,100901.05
2018-06-14T09:03:54.993Z,100896.84
2018-06-14T09:06:28.755Z,100889.96
2018-06-14T09:08:57.803Z,100890.63
2018-06-14T09:11:26.910Z,100891.13
2018-06-14T09:13:56.028Z,100886.95
2018-06-14T09:16:27.683Z,100889.36
2018-06-14T09:18:56.751Z,100895.80
2018-06-14T09:21:25.675Z,100897.40
2018-06-14T09:23:55.177Z,100897.72
2018-06-14T09:26:27.533Z,100897.89
2018-06-14T09:28:56.611Z,100898.29
2018-06-14T09:31:25.710Z,100889.66
2018-06-14T09:33:55.028Z,100886.84
2018-06-14T09:36:31.636Z,100892.34
2018-06-14T09:39:00.574Z,100877.50
2018-06-14T09:41:29.702Z,100883.69
2018-06-14T09:43:58.971Z,100887.27
2018-06-14T09:46:28.575Z,100883.63
2018-06-14T09:49:02.965Z,100887.79
2018-06-14T09:51:32.223Z,100876.66
2018-06-14T09:54:01.145Z,100878.50
2018-06-14T09:56:30.198Z,100874.27
2018-06-14T09:58:59.267Z,100875.58
2018-06-14T10:01:29.020Z,100874.83
2018-06-14T10:03:58.118Z,100869.45
2018-06-14T10:06:28.468Z,100873.13
2018-06-14T10:08:57.594Z,100881.03
2018-06-14T10:11:26.543Z,100875.39
2018-06-14T10:13:56.210Z,100874.84
2018-06-14T10:16:29.711Z,100869.91
2018-06-14T10:18:58.787Z,100867.83
2018-06-14T10:21:27.728Z,100864.60
2018-06-14T10:23:56.979Z,100862.72
2018-06-14T10:26:27.724Z,100877.06
2018-06-14T10:28:56.619Z,100876.70
2018-06-14T10:31:25.527Z,100874.84
2018-06-14T10:33:54.607Z,100867.28
2018-06-14T10:36:27.745Z,100867.31
2018-06-14T10:38:56.667Z,100867.09
2018-06-14T10:41:25.763Z,100871.81
2018-06-14T10:43:54.867Z,100860.83
2018-06-14T10:46:28.971Z,100855.92
2018-06-14T10:48:58.071Z,100853.66
2018-06-14T10:51:27.017Z,100863.44
2018-06-14T10:53:56.284Z,100859.84
2018-06-14T10:56:29.275Z,100864.39
2018-06-14T10:58:58.346Z,100866.73
2018-06-14T11:01:27.286Z,100857.73
2018-06-14T11:03:56.535Z,100855.91
2018-06-14T11:06:29.044Z,100868.55
2018-06-14T11:08:58.999Z,100856.64
2018-06-14T11:11:28.223Z,100858.39
2018-06-14T11:13:57.336Z,100846.33
2018-06-14T11:16:29.739Z,100841.86
2018-06-14T11:18:59.668Z,100845.59
2018-06-14T11:21:28.937Z,100835.53
2018-06-14T11:23:58.443Z,100847.63
2018-06-14T11:26:28.216Z,100840.16
2018-06-14T11:28:57.197Z,100842.90
2018-06-14T11:31:26.323Z,100837.91
2018-06-14T11:33:55.696Z,100833.02
2018-06-14T11:36:27.895Z,100832.06
2018-06-14T11:38:56.853Z,100827.27
2018-06-14T11:41:26.103Z,100822.09
2018-06-14T11:43:55.187Z,100821.45
2018-06-14T11:46:27.679Z,100824.94
2018-06-14T11:48:57.007Z,100822.83
2018-06-14T11:51:26.475Z,100820.86
2018-06-14T11:53:55.743Z,100818.70
2018-06-14T11:56:27.724Z,100810.81
2018-06-14T11:58:56.666Z,100807.88
2018-06-14T12:01:26.527Z,100809.77
2018-06-14T12:03:56.514Z,100807.91
2018-06-14T12:06:29.067Z,100794.80
2018-06-14T12:08:58.107Z,100802.70
2018-06-14T12:11:27.031Z,100801.29
2018-06-14T12:13:56.118Z,100795.48
2018-06-14T12:16:28.795Z,100784.00
2018-06-14T12:18:57.893Z,100789.49
2018-06-14T12:21:26.992Z,100789.67
2018-06-14T12:23:56.109Z,100787.20
2018-06-14T12:26:29.565Z,100786.66
2018-06-14T12:28:58.689Z,100782.34
2018-06-14T12:31:28.316Z,100785.39
2018-06-14T12:33:57.730Z,100780.47
2018-06-14T12:36:27.287Z,100774.45
2018-06-14T12:38:56.343Z,100772.05
2018-06-14T12:41:26.183Z,100766.87
2018-06-14T12:43:55.970Z,100763.44
2018-06-14T12:46:28.151Z,100762.51
2018-06-14T12:48:57.306Z,100764.48
2018-06-14T12:51:26.363Z,100758.36
2018-06-14T12:53:55.467Z,100746.84
2018-06-14T12:56:27.702Z,100739.89
2018-06-14T12:58:57.293Z,100748.19
2018-06-14T13:01:27.558Z,100751.39
2018-06-14T13:03:56.655Z,100744.10
2018-06-14T13:06:27.757Z,100738.14
2018-06-14T13:08:56.931Z,100743.09
2018-06-14T13:11:25.961Z,100737.28
2018-06-14T13:13:55.066Z,100736.68
2018-06-14T13:16:27.154Z,100737.27
2018-06-14T13:18:56.243Z,100733.84
2018-06-14T13:21:25.327Z,100740.42
2018-06-14T13:23:54.431Z,100733.85
2018-06-14T13:26:26.444Z,100736.96
2018-06-14T13:28:56.483Z,100731.28
2018-06-14T13:31:25.927Z,100733.67
2018-06-14T13:33:55.367Z,100730.94
2018-06-14T13:36:28.150Z,100736.23
2018-06-14T13:38:57.534Z,100727.46
2018-06-14T13:41:26.433Z,100723.98
2018-06-14T13:43:56.100Z,100726.82
2018-06-14T13:46:28.669Z,100731.46
2018-06-14T13:48:57.885Z,100724.23
2018-06-14T13:51:27.262Z,100709.48
2018-06-14T13:53:56.570Z,100727.12
2018-06-14T13:56:27.424Z,100733.99
2018-06-14T13:58:56.396Z,100726.99
2018-06-14T14:01:25.710Z,100724.80
2018-06-14T14:03:55.122Z,100727.08
2018-06-14T14:06:27.371Z,100708.36
2018-06-14T14:08:56.478Z,100717.00
2018-06-14T14:11:25.424Z,100727.75
2018-06-14T14:13:55.131Z,100719.67
2018-06-14T14:16:29.166Z,100718.83
2018-06-14T14:18:58.339Z,100718.18
2018-06-14T14:21:27.784Z,100720.59
2018-06-14T14:23:57.414Z,100724.13
2018-06-14T14:26:28.723Z,100716.23
2018-06-14T14:28:57.832Z,100721.01
2018-06-14T14:31:26.809Z,100722.36
2018-06-14T14:33:56.144Z,100726.40
2018-06-14T14:36:28.492Z,100723.81
2018-06-14T14:38:57.452Z,100720.78
2018-06-14T14:41:26.675Z,100727.44
2018-06-14T14:43:55.810Z,100720.37
2018-06-14T14:46:28.466Z,100717.53
2018-06-14T14:48:57.687Z,100716.25
2018-06-14T14:51:26.847Z,100721.25
2018-06-14T14:53:55.817Z,100718.17
2018-06-14T14:56:28.142Z,100713.55
2018-06-14T14:58:57.128Z,100725.15
2018-06-14T15:01:26.759Z,100722.75
2018-06-14T15:03:56.131Z,100717.16
2018-06-14T15:06:29.155Z,100718.09
2018-06-14T15:08:59.241Z,100721.20
2018-06-14T15:11:28.545Z,100717.58
2018-06-14T15:13:58.149Z,100718.30
2018-06-14T15:16:28.357Z,100717.47
2018-06-14T15:18:57.367Z,100711.24
2018-06-14T15:21:26.613Z,100720.90
2018-06-14T15:23:56.753Z,100717.47
2018-06-14T15:26:28.959Z,100721.84
2018-06-14T15:28:58.254Z,100713.62
2018-06-14T15:31:27.340Z,100719.75
2018-06-14T15:33:56.442Z,100720.13
2018-06-14T15:36:27.388Z,100712.67
2018-06-14T15:38:57.288Z,100723.36
2018-06-14T15:41:26.376Z,100715.48
2018-06-14T15:43:55.338Z,100710.98
2018-06-14T15:46:28.167Z,100729.70
2018-06-14T15:48:57.267Z,100722.97
2018-06-14T15:51:26.540Z,100724.95
2018-06-14T15:53:56.054Z,100725.34
2018-06-14T15:56:34.815Z,100725.98
2018-06-14T15:59:06.899Z,100724.55
2018-06-14T16:01:36.062Z,100728.70
2018-06-14T16:04:05.975Z,100727.55
2018-06-14T16:06:35.342Z,100728.91
2018-06-14T16:09:06.727Z,100731.08
2018-06-14T16:11:36.224Z,100743.11
2018-06-14T16:14:06.013Z,100744.33
2018-06-14T16:16:35.206Z,100753.20
2018-06-14T16:19:04.758Z,100756.67
2018-06-14T16:21:34.696Z,100767.22
2018-06-14T16:24:03.644Z,100765.86
2018-06-14T16:26:32.628Z,100781.51
2018-06-14T16:29:01.829Z,100789.36
2018-06-14T16:31:30.771Z,100799.26
2018-06-14T16:34:00.024Z,100802.55
2018-06-14T16:36:29.212Z,100813.67
2018-06-14T16:38:58.302Z,100815.59
2018-06-14T16:41:27.431Z,100817.33
2018-06-14T16:43:57.318Z,100816.02
2018-06-14T16:46:28.364Z,100822.16
2018-06-14T16:48:57.455Z,100829.34
2018-06-14T16:51:27.742Z,100833.07
2018-06-14T16:53:56.863Z,100837.56
2018-06-14T16:56:27.538Z,100831.55
2018-06-14T16:58:56.431Z,100836.89
2018-06-14T17:01:25.771Z,100843.23
2018-06-14T17:03:55.036Z,100849.37
2018-06-14T17:06:27.507Z,100855.23
2018-06-14T17:08:57.167Z,100856.92
2018-06-14T17:11:26.331Z,100853.88
2018-06-14T17:13:55.586Z,100861.05
2018-06-14T17:16:28.662Z,100858.86
2018-06-14T17:18:57.742Z,100863.20
2018-06-14T17:21:27.220Z,100862.39
2018-06-14T17:23:56.817Z,100861.61
2018-06-14T17:26:28.957Z,100866.37
2018-06-14T17:28:58.015Z,100867.03
2018-06-14T17:31:27.201Z,100872.45
2018-06-14T17:33:56.138Z,100877.88
2018-06-14T17:36:28.943Z,100878.77
2018-06-14T17:38:58.393Z,100882.29
2018-06-14T17:41:27.612Z,100886.57
2018-06-14T17:43:56.592Z,100888.61
2018-06-14T17:46:27.144Z,100890.48
2018-06-14T17:48:56.208Z,100890.02
2018-06-14T17:51:25.914Z,100894.19
2018-06-14T17:53:55.036Z,100899.92
2018-06-14T17:56:27.570Z,100905.23
2018-06-14T17:58:57.683Z,100904.64
2018-06-14T18:01:26.987Z,100902.39
2018-06-14T18:03:56.442Z,100913.48
2018-06-14T18:06:28.860Z,100907.58
2018-06-14T18:08:57.735Z,100909.36
2018-06-14T18:11:27.579Z,100909.24
2018-06-14T18:13:56.586Z,100908.55
2018-06-14T18:16:28.963Z,100911.23
2018-06-14T18:18:58.241Z,100910.80
2018-06-14T18:21:27.567Z,100909.30
2018-06-14T18:23:56.559Z,100905.28
2018-06-14T18:26:30.177Z,100908.40
2018-06-14T18:28:59.482Z,100907.55
2018-06-14T18:31:29.414Z,100914.44
2018-06-14T18:33:58.458Z,100906.62
2018-06-14T18:36:28.389Z,100906.08
2018-06-14T18:38:57.459Z,100909.60
2018-06-14T18:41:26.632Z,100907.61
2018-06-14T18:43:55.823Z,100910.09
2018-06-14T18:46:28.736Z,100900.04
2018-06-14T18:48:58.047Z,100909.09
2018-06-14T18:51:27.003Z,100907.22
2018-06-14T18:53:56.184Z,100911.73
2018-06-14T18:56:28.162Z,100908.10
2018-06-14T18:58:57.626Z,100912.33
2018-06-14T19:01:26.857Z,100912.00
2018-06-14T19:03:56.446Z,100907.94
2018-06-14T19:06:29.143Z,100904.58
2018-06-14T19:08:59.779Z,100908.78
2018-06-14T19:11:28.897Z,100905.61
2018-06-14T19:13:58.135Z,100903.66
2018-06-14T19:16:27.373Z,100909.62
2018-06-14T19:18:56.852Z,100906.57
2018-06-14T19:21:25.913Z,100910.30
2018-06-14T19:23:55.052Z,100911.27
2018-06-14T19:26:27.235Z,100914.11
2018-06-14T19:28:56.521Z,100916.65
2018-06-14T19:31:26.124Z,100919.30
2018-06-14T19:33:55.583Z,100913.75
2018-06-14T19:36:28.548Z,100924.95
2018-06-14T19:38:57.831Z,100924.80
2018-06-14T19:41:26.923Z,100926.16
2018-06-14T19:43:56.430Z,100932.14
2018-06-14T19:46:28.030Z,100938.72
2018-06-14T19:48:57.312Z,100942.72
2018-06-14T19:51:26.535Z,100939.35
2018-06-14T19:53:58.971Z,100943.53
2018-06-14T19:56:30.326Z,100943.50
2018-06-14T19:59:02.451Z,100945.23
2018-06-14T20:01:32.443Z,100953.10
2018-06-14T20:04:03.098Z,100955.58
2018-06-14T20:06:33.254Z,100961.78
2018-06-14T20:09:04.187Z,100958.09
2018-06-14T20:11:35.347Z,100958.78
2018-06-14T20:14:05.221Z,100963.48
2018-06-14T20:16:35.054Z,100966.31
2018-06-14T20:19:06.497Z,100967.99
2018-06-14T20:21:36.710Z,100968.68
2018-06-14T20:24:06.850Z,100969.16
2018-06-14T20:26:37.914Z,100967.47
2018-06-14T20:29:08.197Z,100963.80
2018-06-14T20:31:38.034Z,100963.45
2018-06-14T20:34:08.445Z,100971.86
2018-06-14T20:36:38.384Z,100975.01
2018-06-14T20:39:12.378Z,100973.99
2018-06-14T20:41:43.727Z,100969.34
2018-06-14T20:44:13.421Z,100973.69
2018-06-14T20:46:47.668Z,100972.16
2018-06-14T20:49:17.041Z,100970.96
2018-06-14T20:51:46.945Z,100973.48
2018-06-14T20:54:16.706Z,100971.83
2018-06-14T20:56:46.694Z,100972.67
2018-06-14T20:59:17.606Z,100907.33
2018-06-14T21:01:47.224Z,100966.83
2018-06-14T21:04:17.540Z,100970.69
2018-06-14T21:06:47.380Z,100975.05
2018-06-14T21:09:18.267Z,100975.21
2018-06-14T21:11:49.488Z,100975.38
2018-06-14T21:14:20.382Z,100973.22
2018-06-14T21:16:52.491Z,100977.71
2018-06-14T21:19:23.397Z,100980.88
2018-06-14T21:21:57.753Z,100984.42
2018-06-14T21:24:27.016Z,100989.25
2018-06-14T21:26:55.969Z,100986.41
2018-06-14T21:29:25.075Z,100987.91
2018-06-14T21:31:56.586Z,100992.11
2018-06-14T21:34:27.698Z,100991.28
2018-06-14T21:36:58.833Z,100995.97
2018-06-14T21:39:30.098Z,100984.08
2018-06-14T21:41:59.531Z,100979.24
2018-06-14T21:44:30.853Z,100981.58
2018-06-14T21:47:01.198Z,100982.25
2018-06-14T21:49:32.152Z,100988.44
2018-06-14T21:52:01.288Z,100987.59
2018-06-14T21:54:31.611Z,100985.42
2018-06-14T21:57:00.744Z,100983.23
2018-06-14T21:59:29.895Z,100988.94
2018-06-14T22:01:59.166Z,100991.78
2018-06-14T22:04:28.275Z,100991.27
2018-06-14T22:06:57.376Z,100997.13
2018-06-14T22:09:27.090Z,101002.47
2018-06-14T22:11:56.523Z,100997.97
2018-06-14T22:14:26.062Z,100998.64
2018-06-14T22:16:55.365Z,101002.82
2018-06-14T22:19:24.574Z,101004.97
2018-06-14T22:21:53.675Z,101005.15
2018-06-14T22:24:22.622Z,101000.46
2018-06-14T22:26:51.603Z,101004.48
2018-06-14T22:29:20.734Z,101008.66
2018-06-14T22:31:49.700Z,101003.33
2018-06-14T22:34:29.757Z,101004.67
2018-06-14T22:36:59.399Z,101004.50
2018-06-14T22:39:28.921Z,101009.17
2018-06-14T22:41:57.900Z,101009.66
2018-06-14T22:44:27.148Z,101011.81
2018-06-14T22:46:56.416Z,101000.63
2018-06-14T22:49:25.333Z,100996.64
2018-06-14T22:53:02.138Z,100993.95
2018-06-14T22:55:31.694Z,100989.45
2018-06-14T22:58:00.863Z,100985.27
2018-06-14T23:01:42.390Z,100983.75
2018-06-14T23:04:15.151Z,100983.09
2018-06-14T23:06:44.462Z,100981.42
2018-06-14T23:10:24.452Z,100984.59
2018-06-14T23:12:53.506Z,100981.91
2018-06-14T23:15:22.943Z,100985.42
2018-06-14T23:17:52.736Z,100976.56
2018-06-14T23:20:23.082Z,100979.23
2018-06-14T23:22:53.843Z,100976.41
2018-06-14T23:25:23.891Z,100974.72
2018-06-14T23:27:52.994Z,100971.05
2018-06-14T23:30:22.090Z,100973.05
2018-06-14T23:32:51.424Z,100969.56
2018-06-14T23:35:20.709Z,100967.86
2018-06-14T23:37:50.362Z,100971.88
2018-06-14T23:40:19.482Z,100969.39
2018-06-14T23:42:49.091Z,100974.88
2018-06-14T23:45:18.363Z,100976.89
2018-06-14T23:47:47.540Z,100973.69
2018-06-14T23:50:16.809Z,100976.37
2018-06-14T23:52:45.739Z,100976.06
2018-06-14T23:55:15.041Z,100973.88
2018-06-14T23:57:43.998Z,100979.90
